• Join FlightAware (Why Join?)
  • Login
  • US Flag 
09:32PM EDT


 

Airport Tracker/Info


-or-


 

Live Flight TrackerFlight Track Log ✈ UAL3767 ✈ 28-Apr-2013 ✈ KIND - KORD

Flight Track Log - Related Links

Times and Time Zones

All times are in EDT time to prevent confusion due to time zone crossing. See the UAL3767 flight status page for this flight to view local times or setup timezone preferences in your user account.

Time Position Orientation Groundspeed Altitude Reporting Facility
EDT Latitude Longitude Course Direction KTS MPH feet Rate Location/Type
11:13AM 39.7167 -86.2667 46° Northeast 167 192 1,500  Level Indianapolis TRACON
11:13AM 39.7500 -86.2500 21° North 180 207 2,400 960 Climbing Indianapolis TRACON
11:14AM 39.8167 -86.2500 360° North 271 312 3,000 1,560 Climbing Indianapolis TRACON
11:15AM 39.8667 -86.2667 346° North 285 328 5,400 2,580 Climbing Indianapolis TRACON
11:16AM 40.0315 -86.2438 42° Northeast  Level FlightAware Approximate
11:16AM 39.8911 -86.2786 339° North 266 306 6,100  Level Chicago Center
11:17AM 40.0930 -86.1705 46° Northeast  Level FlightAware Approximate
11:17AM 39.9686 -86.3022 347° North 279 321 9,100  Level Chicago Center
11:18AM 40.1512 -86.0928 46° Northeast  Level FlightAware Approximate
11:18AM 40.0458 -86.2603 23° Northeast 307 353 11,800  Level Chicago Center
11:19AM 40.1333 -86.2392 10° North 318 366 14,300 2,340 Climbing Chicago Center
11:20AM 40.2244 -86.2225 North 329 379 16,600 2,040 Climbing Chicago Center
11:21AM 40.3447 -86.2383 354° North 372 428 18,600 1,800 Climbing Chicago Center
11:22AM 40.4528 -86.2514 355° North 384 442 20,400 1,620 Climbing Chicago Center
11:23AM 40.5633 -86.2667 354° North 396 456 22,000 780 Climbing Chicago Center
11:24AM 40.6781 -86.2883 352° North 412 474 22,000  Level Chicago Center
11:25AM 40.7497 -86.3750 318° Northwest 391 450 22,000  Level Chicago Center
11:26AM 40.8439 -86.4992 315° West 397 457 22,000 -540 Level Chicago Center
11:27AM 40.9244 -86.6044 315° West 405 466 20,900 -1,260 Descending Chicago Center
11:28AM 41.0056 -86.7100 316° Northwest 408 470 19,400 -1,440 Descending Chicago Center
11:29AM 41.0822 -86.8086 316° Northwest 394 453 18,000 -1,380 Descending Chicago Center
11:30AM 41.1561 -86.9097 314° West 384 442 16,600 -1,380 Descending Chicago Center
11:31AM 41.2264 -87.0039 315° West 365 420 15,200 -1,500 Descending Chicago Center
11:32AM 41.3081 -87.1181 314° West 357 411 13,500 -1,500 Descending Chicago Center
11:33AM 41.3811 -87.2147 315° West 368 423 12,100 -1,440 Descending Chicago Center
11:33AM 41.4167 -87.2500 323° Northwest 371 427 11,600 -840 Descending Chicago TRACON
11:34AM 41.4833 -87.3333 317° Northwest 361 415 11,000 -360 Descending Chicago TRACON
11:35AM 41.5322 -87.3922 318° Northwest 360 414 11,000  Level Chicago Center
11:36AM 41.6064 -87.4736 321° Northwest 351 404 11,000  Level Chicago Center
11:37AM 41.6975 -87.5750 320° Northwest 359 413 11,000  Level Chicago Center
11:38AM 41.7725 -87.6592 320° Northwest 358 412 11,000  Level Chicago Center
11:39AM 41.8500 -87.7667 314° West 342 394 11,000 -540 Level Chicago TRACON
11:40AM 41.8833 -87.8667 294° West 294 338 10,000 -1,380 Descending Chicago TRACON
11:41AM 41.9000 -87.9500 285° West 297 342 8,400 -1,860 Descending Chicago TRACON
11:42AM 41.9333 -88.0500 294° West 283 326 6,500 -1,440 Descending Chicago TRACON
11:43AM 41.9833 -88.1167 315° West 269 310 5,600 -780 Descending Chicago TRACON
11:44AM 42.0397 -88.1886 317° Northwest 262 302 4,800 -1,080 Descending Chicago Center
11:45AM 42.0936 -88.2200 337° Northwest 244 281 3,300 -900 Descending Chicago Center
11:46AM 42.1236 -88.1494 60° Northeast 229 264 3,000 -180 Descending Chicago Center
11:47AM 42.1167 -88.0833 98° East 215 247 3,000 -60 Level Chicago TRACON
11:48AM 42.0667 -88.0333 143° Southeast 213 245 2,900 -120 Descending Chicago TRACON